Time,TemperatureF,DewpointF,PressureIn,WindDirection,WindDirectionDegrees,WindSpeedMPH,WindSpeedGustMPH,Humidity,HourlyPrecipIn,Conditions,Clouds,dailyrainin,SoftwareType,DateUTC
2013-04-28 07:47:00,52.9,45.5,30.23,SE,126,1.0,1.0,76,0.00,,,0.00,Wunderground v.1.15,2013-04-28 11:47:00,
2013-04-28 07:49:00,53.1,46.1,30.23,SE,126,0.0,1.0,77,0.00,,,0.00,Wunderground v.1.15,2013-04-28 11:49:00,
2013-04-28 07:50:00,53.2,46.5,30.23,SE,126,0.0,1.0,78,0.00,,,0.00,Wunderground v.1.15,2013-04-28 11:50:00,
2013-04-28 07:51:00,53.2,45.8,30.23,SE,126,1.0,1.0,76,0.00,,,0.00,Wunderground v.1.15,2013-04-28 11:51:00,
2013-04-28 07:55:00,53.6,45.9,30.23,SE,126,1.0,1.0,75,0.00,,,0.00,Wunderground v.1.15,2013-04-28 11:55:00,
2013-04-28 08:00:00,53.9,45.8,30.23,SE,126,1.0,1.0,74,0.00,,,0.00,Wunderground v.1.15,2013-04-28 12:00:00,
2013-04-28 08:05:00,54.2,46.1,30.23,SE,126,1.0,2.0,74,0.00,,,0.00,Wunderground v.1.15,2013-04-28 12:05:00,
2013-04-28 08:11:00,54.5,46.0,30.23,SE,126,0.0,0.0,73,0.00,,,0.00,Wunderground v.1.15,2013-04-28 12:11:00,
2013-04-28 08:16:00,54.7,45.8,30.23,SE,126,1.0,3.0,72,0.00,,,0.00,Wunderground v.1.15,2013-04-28 12:16:00,
2013-04-28 08:21:00,55.0,45.8,30.23,SE,126,1.0,2.0,71,0.00,,,0.00,Wunderground v.1.15,2013-04-28 12:21:00,
2013-04-28 08:27:00,55.4,46.2,30.23,SE,126,2.0,6.0,71,0.00,,,0.00,Wunderground v.1.15,2013-04-28 12:27:00,
2013-04-28 08:32:00,55.6,46.0,30.24,SE,126,2.0,3.0,70,0.00,,,0.00,Wunderground v.1.15,2013-04-28 12:32:00,
2013-04-28 08:37:00,55.8,46.2,30.23,SE,129,2.0,4.0,70,0.00,,,0.00,Wunderground v.1.15,2013-04-28 12:37:00,
2013-04-28 08:43:00,56.0,46.4,30.23,SE,136,2.0,4.0,70,0.00,,,0.00,Wunderground v.1.15,2013-04-28 12:43:00,
2013-04-28 08:48:00,56.1,45.7,30.23,SE,139,3.0,6.0,68,0.00,,,0.00,Wunderground v.1.15,2013-04-28 12:48:00,
2013-04-28 08:54:00,56.1,46.1,30.23,SE,138,3.0,4.0,69,0.00,,,0.00,Wunderground v.1.15,2013-04-28 12:54:00,
2013-04-28 08:59:00,56.1,45.7,30.23,SE,136,3.0,7.0,68,0.00,,,0.00,Wunderground v.1.15,2013-04-28 12:59:00,
2013-04-28 09:05:00,56.2,45.8,30.23,ESE,112,3.0,3.0,68,0.00,,,0.00,Wunderground v.1.15,2013-04-28 13:05:00,
2013-04-28 09:10:00,56.2,45.8,30.23,ESE,118,3.0,3.0,68,0.00,,,0.00,Wunderground v.1.15,2013-04-28 13:10:00,
2013-04-28 09:15:00,56.3,45.9,30.23,SE,134,4.0,7.0,68,0.00,,,0.00,Wunderground v.1.15,2013-04-28 13:15:00,
2013-04-28 09:20:00,56.2,45.8,30.23,ESE,111,4.0,4.0,68,0.00,,,0.00,Wunderground v.1.15,2013-04-28 13:20:00,
2013-04-28 09:26:00,56.3,45.9,30.23,SE,137,3.0,7.0,68,0.00,,,0.00,Wunderground v.1.15,2013-04-28 13:26:00,
2013-04-28 09:31:00,56.3,45.5,30.22,ESE,121,4.0,5.0,67,0.00,,,0.00,Wunderground v.1.15,2013-04-28 13:31:00,
2013-04-28 09:37:00,56.2,45.0,30.23,SSE,149,4.0,7.0,66,0.00,,,0.00,Wunderground v.1.15,2013-04-28 13:37:00,
2013-04-28 09:42:00,56.0,44.8,30.23,SE,130,5.0,7.0,66,0.00,,,0.00,Wunderground v.1.15,2013-04-28 13:42:00,
2013-04-28 09:48:00,56.0,44.8,30.23,SSE,160,5.0,7.0,66,0.00,,,0.00,Wunderground v.1.15,2013-04-28 13:48:00,
2013-04-28 09:53:00,56.0,44.8,30.23,South,188,5.0,9.0,66,0.00,,,0.00,Wunderground v.1.15,2013-04-28 13:53:00,
2013-04-28 09:58:00,55.9,45.1,30.23,SSE,148,4.0,9.0,67,0.00,,,0.00,Wunderground v.1.15,2013-04-28 13:58:00,
2013-04-28 10:04:00,55.9,45.1,30.23,South,173,5.0,7.0,67,0.00,,,0.00,Wunderground v.1.15,2013-04-28 14:04:00,
2013-04-28 10:09:00,56.0,45.2,30.23,SSE,161,4.0,7.0,67,0.00,,,0.00,Wunderground v.1.15,2013-04-28 14:09:00,
2013-04-28 10:15:00,56.1,45.3,30.23,SSE,159,4.0,7.0,67,0.00,,,0.00,Wunderground v.1.15,2013-04-28 14:15:00,
2013-04-28 10:20:00,56.2,45.8,30.23,SE,137,4.0,5.0,68,0.00,,,0.00,Wunderground v.1.15,2013-04-28 14:20:00,
2013-04-28 10:26:00,56.3,45.9,30.23,SSE,157,4.0,8.0,68,0.00,,,0.00,Wunderground v.1.15,2013-04-28 14:26:00,
2013-04-28 10:31:00,56.2,45.4,30.23,SSE,156,5.0,6.0,67,0.00,,,0.00,Wunderground v.1.15,2013-04-28 14:31:00,
2013-04-28 10:37:00,56.0,45.6,30.23,SSE,155,5.0,10.0,68,0.00,,,0.00,Wunderground v.1.15,2013-04-28 14:37:00,
2013-04-28 10:42:00,55.9,45.9,30.24,SSE,155,5.0,6.0,69,0.00,,,0.00,Wunderground v.1.15,2013-04-28 14:42:00,
2013-04-28 10:48:00,56.0,46.0,30.24,SE,145,4.0,6.0,69,0.00,,,0.00,Wunderground v.1.15,2013-04-28 14:48:00,
2013-04-28 10:53:00,56.0,46.0,30.24,SSE,149,3.0,7.0,69,0.00,,,0.00,Wunderground v.1.15,2013-04-28 14:53:00,
2013-04-28 10:58:00,56.1,46.1,30.24,SSE,161,2.0,7.0,69,0.00,,,0.00,Wunderground v.1.15,2013-04-28 14:58:00,
2013-04-28 11:04:00,56.2,46.2,30.24,SSE,159,2.0,4.0,69,0.00,,,0.00,Wunderground v.1.15,2013-04-28 15:04:00,
2013-04-28 11:09:00,56.2,46.5,30.24,SSE,153,2.0,6.0,70,0.00,,,0.00,Wunderground v.1.15,2013-04-28 15:09:00,
2013-04-28 11:15:00,56.0,46.4,30.24,SE,145,4.0,6.0,70,0.00,,,0.00,Wunderground v.1.15,2013-04-28 15:15:00,
2013-04-28 11:20:00,55.8,46.5,30.24,SSE,148,5.0,5.0,71,0.00,,,0.00,Wunderground v.1.15,2013-04-28 15:20:00,
2013-04-28 11:26:00,55.8,46.9,30.24,SE,128,4.0,7.0,72,0.00,,,0.00,Wunderground v.1.15,2013-04-28 15:26:00,
2013-04-28 11:31:00,55.7,46.8,30.24,SE,132,4.0,5.0,72,0.00,,,0.00,Wunderground v.1.15,2013-04-28 15:31:00,
2013-04-28 11:36:00,55.5,47.3,30.24,SE,138,4.0,5.0,74,0.00,,,0.00,Wunderground v.1.15,2013-04-28 15:36:00,
2013-04-28 11:42:00,55.1,47.3,30.24,SE,143,4.0,6.0,75,0.00,,,0.00,Wunderground v.1.15,2013-04-28 15:42:00,
2013-04-28 11:47:00,54.8,47.7,30.24,SE,144,4.0,6.0,77,0.00,,,0.00,Wunderground v.1.15,2013-04-28 15:47:00,
2013-04-28 11:52:00,54.5,48.1,30.24,SE,143,3.0,5.0,79,0.00,,,0.01,Wunderground v.1.15,2013-04-28 15:52:00,
2013-04-28 11:58:00,54.2,48.2,30.24,SE,137,2.0,5.0,80,0.00,,,0.01,Wunderground v.1.15,2013-04-28 15:58:00,
2013-04-28 12:03:00,54.1,48.7,30.24,SE,137,2.0,3.0,82,0.00,,,0.01,Wunderground v.1.15,2013-04-28 16:03:00,
2013-04-28 12:09:00,53.9,48.5,30.25,SE,134,2.0,3.0,82,0.00,,,0.01,Wunderground v.1.15,2013-04-28 16:09:00,
2013-04-28 12:14:00,53.7,48.7,30.25,SE,134,2.0,4.0,83,0.00,,,0.01,Wunderground v.1.15,2013-04-28 16:14:00,
2013-04-28 12:19:00,53.4,48.4,30.24,SE,145,3.0,5.0,83,0.00,,,0.01,Wunderground v.1.15,2013-04-28 16:19:00,
2013-04-28 12:25:00,53.4,49.0,30.24,SE,146,3.0,4.0,85,0.00,,,0.02,Wunderground v.1.15,2013-04-28 16:25:00,
2013-04-28 12:30:00,53.2,48.8,30.24,SE,136,2.0,3.0,85,0.00,,,0.02,Wunderground v.1.15,2013-04-28 16:30:00,
2013-04-28 12:35:00,53.1,49.0,30.24,SE,136,1.0,3.0,86,0.00,,,0.02,Wunderground v.1.15,2013-04-28 16:35:00,
2013-04-28 12:41:00,52.8,48.7,30.24,SE,132,2.0,4.0,86,0.04,,,0.03,Wunderground v.1.15,2013-04-28 16:41:00,
2013-04-28 12:46:00,52.6,48.5,30.24,SSE,155,3.0,7.0,86,0.04,,,0.03,Wunderground v.1.15,2013-04-28 16:46:00,
2013-04-28 12:52:00,52.5,48.4,30.24,SSE,161,4.0,7.0,86,0.04,,,0.03,Wunderground v.1.15,2013-04-28 16:52:00,
2013-04-28 12:57:00,52.4,48.3,30.24,ESE,119,4.0,7.0,86,0.00,,,0.03,Wunderground v.1.15,2013-04-28 16:57:00,
2013-04-28 13:03:00,52.4,48.6,30.24,SE,134,4.0,4.0,87,0.00,,,0.04,Wunderground v.1.15,2013-04-28 17:03:00,
2013-04-28 13:08:00,52.4,48.6,30.24,SE,136,4.0,5.0,87,0.00,,,0.04,Wunderground v.1.15,2013-04-28 17:08:00,
2013-04-28 13:13:00,52.3,48.5,30.24,SE,144,4.0,8.0,87,0.00,,,0.04,Wunderground v.1.15,2013-04-28 17:13:00,
2013-04-28 13:19:00,52.1,48.7,30.23,SSE,150,3.0,9.0,88,0.04,,,0.05,Wunderground v.1.15,2013-04-28 17:19:00,
2013-04-28 13:24:00,52.1,48.7,30.23,SE,142,3.0,4.0,88,0.04,,,0.05,Wunderground v.1.15,2013-04-28 17:24:00,
2013-04-28 13:30:00,52.0,48.9,30.23,ESE,105,2.0,8.0,89,0.06,,,0.06,Wunderground v.1.15,2013-04-28 17:30:00,
2013-04-28 13:35:00,51.8,48.7,30.23,SE,130,4.0,9.0,89,0.06,,,0.06,Wunderground v.1.15,2013-04-28 17:35:00,
2013-04-28 13:40:00,51.8,49.0,30.23,SE,140,4.0,4.0,90,0.05,,,0.07,Wunderground v.1.15,2013-04-28 17:40:00,
2013-04-28 13:46:00,51.7,48.9,30.23,SE,129,4.0,6.0,90,0.08,,,0.08,Wunderground v.1.15,2013-04-28 17:46:00,
2013-04-28 13:51:00,51.6,48.8,30.23,SE,133,4.0,4.0,90,0.08,,,0.08,Wunderground v.1.15,2013-04-28 17:51:00,
2013-04-28 13:56:00,51.5,49.0,30.23,SE,126,4.0,8.0,91,0.08,,,0.09,Wunderground v.1.15,2013-04-28 17:56:00,
2013-04-28 14:02:00,51.5,49.0,30.24,SSE,156,3.0,5.0,91,0.08,,,0.10,Wunderground v.1.15,2013-04-28 18:02:00,
2013-04-28 14:07:00,51.4,48.9,30.24,SSE,155,2.0,5.0,91,0.07,,,0.10,Wunderground v.1.15,2013-04-28 18:07:00,
2013-04-28 14:13:00,51.4,48.9,30.23,SE,143,3.0,4.0,91,0.04,,,0.10,Wunderground v.1.15,2013-04-28 18:13:00,
2013-04-28 14:18:00,51.3,48.8,30.23,SE,134,4.0,5.0,91,0.04,,,0.11,Wunderground v.1.15,2013-04-28 18:18:00,
2013-04-28 14:24:00,51.2,48.7,30.24,SSE,148,4.0,7.0,91,0.04,,,0.11,Wunderground v.1.15,2013-04-28 18:24:00,
2013-04-28 14:29:00,51.2,48.7,30.23,East,88,4.0,7.0,91,0.04,,,0.11,Wunderground v.1.15,2013-04-28 18:29:00,
2013-04-28 14:35:00,51.2,48.7,30.23,SE,124,4.0,6.0,91,0.00,,,0.11,Wunderground v.1.15,2013-04-28 18:35:00,
2013-04-28 14:40:00,51.2,49.0,30.23,SE,125,3.0,3.0,92,0.00,,,0.12,Wunderground v.1.15,2013-04-28 18:40:00,
2013-04-28 14:45:00,51.4,49.2,30.23,SE,129,3.0,3.0,92,0.00,,,0.12,Wunderground v.1.15,2013-04-28 18:45:00,
2013-04-28 14:51:00,51.4,49.2,30.22,ESE,115,3.0,5.0,92,0.00,,,0.12,Wunderground v.1.15,2013-04-28 18:51:00,
2013-04-28 14:56:00,51.4,49.2,30.22,ESE,123,2.0,5.0,92,0.00,,,0.12,Wunderground v.1.15,2013-04-28 18:56:00,
2013-04-28 15:02:00,51.5,49.3,30.22,ESE,122,2.0,5.0,92,0.00,,,0.12,Wunderground v.1.15,2013-04-28 19:02:00,
2013-04-28 15:07:00,51.4,49.2,30.22,ESE,119,2.0,7.0,92,0.00,,,0.12,Wunderground v.1.15,2013-04-28 19:07:00,
2013-04-28 15:12:00,51.5,49.3,30.21,ESE,119,2.0,4.0,92,0.00,,,0.12,Wunderground v.1.15,2013-04-28 19:12:00,
2013-04-28 15:18:00,51.4,49.2,30.21,SE,132,3.0,7.0,92,0.00,,,0.12,Wunderground v.1.15,2013-04-28 19:18:00,
2013-04-28 15:23:00,51.4,49.2,30.21,ESE,117,4.0,4.0,92,0.00,,,0.12,Wunderground v.1.15,2013-04-28 19:23:00,
2013-04-28 15:28:00,51.4,48.9,30.20,ESE,121,3.0,7.0,91,0.00,,,0.12,Wunderground v.1.15,2013-04-28 19:28:00,
2013-04-28 15:34:00,51.5,49.3,30.20,ESE,121,3.0,4.0,92,0.00,,,0.12,Wunderground v.1.15,2013-04-28 19:34:00,
2013-04-28 15:39:00,51.4,48.9,30.20,ESE,108,3.0,4.0,91,0.00,,,0.12,Wunderground v.1.15,2013-04-28 19:39:00,
2013-04-28 15:45:00,51.2,48.7,30.20,ESE,119,4.0,4.0,91,0.00,,,0.12,Wunderground v.1.15,2013-04-28 19:45:00,
2013-04-28 15:50:00,51.1,48.6,30.19,SE,140,4.0,4.0,91,0.00,,,0.12,Wunderground v.1.15,2013-04-28 19:50:00,
2013-04-28 15:55:00,51.0,48.5,30.19,ESE,121,4.0,6.0,91,0.00,,,0.12,Wunderground v.1.15,2013-04-28 19:55:00,
2013-04-28 16:01:00,51.0,48.5,30.19,ESE,114,3.0,3.0,91,0.00,,,0.12,Wunderground v.1.15,2013-04-28 20:01:00,
2013-04-28 16:06:00,51.0,48.5,30.19,ESE,113,3.0,5.0,91,0.00,,,0.12,Wunderground v.1.15,2013-04-28 20:06:00,
2013-04-28 16:12:00,50.9,48.4,30.19,ESE,122,3.0,3.0,91,0.00,,,0.12,Wunderground v.1.15,2013-04-28 20:12:00,
2013-04-28 16:17:00,51.0,48.5,30.19,SE,142,3.0,7.0,91,0.00,,,0.12,Wunderground v.1.15,2013-04-28 20:17:00,
2013-04-28 16:22:00,51.0,48.2,30.18,SE,136,3.0,3.0,90,0.00,,,0.12,Wunderground v.1.15,2013-04-28 20:22:00,
2013-04-28 16:28:00,51.1,48.3,30.18,SE,134,2.0,5.0,90,0.00,,,0.12,Wunderground v.1.15,2013-04-28 20:28:00,
2013-04-28 16:33:00,51.1,48.3,30.18,SE,134,2.0,2.0,90,0.00,,,0.12,Wunderground v.1.15,2013-04-28 20:33:00,
2013-04-28 16:39:00,51.2,48.4,30.18,ESE,122,2.0,5.0,90,0.00,,,0.12,Wunderground v.1.15,2013-04-28 20:39:00,
2013-04-28 16:44:00,51.2,48.1,30.18,ESE,123,3.0,4.0,89,0.00,,,0.12,Wunderground v.1.15,2013-04-28 20:44:00,
2013-04-28 16:50:00,51.2,48.1,30.18,ESE,123,2.0,2.0,89,0.00,,,0.12,Wunderground v.1.15,2013-04-28 20:50:00,
2013-04-28 16:55:00,51.2,48.1,30.18,ESE,123,2.0,2.0,89,0.00,,,0.12,Wunderground v.1.15,2013-04-28 20:55:00,
2013-04-28 17:00:00,51.3,48.2,30.18,ESE,123,1.0,2.0,89,0.00,,,0.12,Wunderground v.1.15,2013-04-28 21:00:00,
2013-04-28 17:06:00,51.3,48.2,30.18,ESE,123,1.0,4.0,89,0.00,,,0.12,Wunderground v.1.15,2013-04-28 21:06:00,
2013-04-28 17:11:00,51.4,48.3,30.18,ESE,123,1.0,2.0,89,0.00,,,0.12,Wunderground v.1.15,2013-04-28 21:11:00,
2013-04-28 17:16:00,51.5,48.4,30.17,ESE,123,1.0,2.0,89,0.00,,,0.12,Wunderground v.1.15,2013-04-28 21:16:00,
2013-04-28 17:22:00,51.5,48.7,30.17,ESE,123,1.0,4.0,90,0.00,,,0.12,Wunderground v.1.15,2013-04-28 21:22:00,
2013-04-28 17:27:00,51.6,48.8,30.17,ESE,117,2.0,5.0,90,0.00,,,0.12,Wunderground v.1.15,2013-04-28 21:27:00,
2013-04-28 17:33:00,51.6,48.5,30.17,ESE,122,2.0,3.0,89,0.00,,,0.12,Wunderground v.1.15,2013-04-28 21:33:00,
2013-04-28 17:38:00,51.6,48.5,30.16,ESE,122,2.0,3.0,89,0.00,,,0.12,Wunderground v.1.15,2013-04-28 21:38:00,
2013-04-28 17:43:00,51.7,48.9,30.16,ESE,122,2.0,5.0,90,0.00,,,0.12,Wunderground v.1.15,2013-04-28 21:43:00,
2013-04-28 17:49:00,51.7,48.9,30.16,ESE,122,1.0,5.0,90,0.00,,,0.13,Wunderground v.1.15,2013-04-28 21:49:00,
2013-04-28 17:54:00,51.7,48.9,30.16,ESE,122,0.0,1.0,90,0.00,,,0.13,Wunderground v.1.15,2013-04-28 21:54:00,
2013-04-28 18:00:00,51.8,49.0,30.16,ESE,122,0.0,0.0,90,0.00,,,0.13,Wunderground v.1.15,2013-04-28 22:00:00,
2013-04-28 18:05:00,51.8,49.0,30.16,ESE,122,1.0,1.0,90,0.00,,,0.13,Wunderground v.1.15,2013-04-28 22:05:00,
2013-04-28 18:10:00,51.8,49.0,30.16,ESE,122,1.0,1.0,90,0.00,,,0.13,Wunderground v.1.15,2013-04-28 22:10:00,
2013-04-28 18:16:00,51.8,49.0,30.15,ESE,122,0.0,2.0,90,0.00,,,0.13,Wunderground v.1.15,2013-04-28 22:16:00,
2013-04-28 18:21:00,51.8,49.0,30.15,ESE,122,0.0,0.0,90,0.00,,,0.13,Wunderground v.1.15,2013-04-28 22:21:00,
2013-04-28 18:27:00,51.8,49.0,30.15,ESE,122,1.0,2.0,90,0.00,,,0.13,Wunderground v.1.15,2013-04-28 22:27:00,
2013-04-28 18:32:00,51.8,48.7,30.15,ESE,122,1.0,1.0,89,0.00,,,0.13,Wunderground v.1.15,2013-04-28 22:32:00,
2013-04-28 18:37:00,51.8,48.7,30.15,ESE,122,0.0,2.0,89,0.00,,,0.13,Wunderground v.1.15,2013-04-28 22:37:00,
2013-04-28 18:43:00,51.9,48.8,30.14,ESE,122,0.0,0.0,89,0.00,,,0.13,Wunderground v.1.15,2013-04-28 22:43:00,
2013-04-28 18:48:00,52.0,48.9,30.14,ESE,122,0.0,0.0,89,0.00,,,0.13,Wunderground v.1.15,2013-04-28 22:48:00,
2013-04-28 18:53:00,52.0,48.9,30.14,ESE,122,0.0,0.0,89,0.00,,,0.13,Wunderground v.1.15,2013-04-28 22:53:00,
2013-04-28 18:59:00,52.0,49.2,30.14,ESE,122,0.0,0.0,90,0.00,,,0.13,Wunderground v.1.15,2013-04-28 22:59:00,
2013-04-28 19:04:00,51.9,49.1,30.14,ESE,122,0.0,0.0,90,0.00,,,0.13,Wunderground v.1.15,2013-04-28 23:04:00,
2013-04-28 19:10:00,51.9,49.1,30.14,ESE,122,0.0,0.0,90,0.00,,,0.13,Wunderground v.1.15,2013-04-28 23:10:00,
2013-04-28 19:15:00,51.8,49.0,30.14,ESE,122,0.0,0.0,90,0.00,,,0.13,Wunderground v.1.15,2013-04-28 23:15:00,
2013-04-28 19:20:00,51.8,49.0,30.14,ESE,122,0.0,0.0,90,0.00,,,0.13,Wunderground v.1.15,2013-04-28 23:20:00,
2013-04-28 19:26:00,51.7,48.9,30.14,ESE,122,0.0,0.0,90,0.00,,,0.13,Wunderground v.1.15,2013-04-28 23:26:00,
2013-04-28 19:31:00,51.6,48.8,30.14,ESE,122,0.0,2.0,90,0.00,,,0.13,Wunderground v.1.15,2013-04-28 23:31:00,
2013-04-28 19:37:00,51.5,48.7,30.14,ESE,122,1.0,2.0,90,0.00,,,0.13,Wunderground v.1.15,2013-04-28 23:37:00,
2013-04-28 19:42:00,51.6,48.8,30.14,ESE,122,1.0,1.0,90,0.00,,,0.13,Wunderground v.1.15,2013-04-28 23:42:00,
2013-04-28 19:47:00,51.8,48.7,30.14,ESE,122,0.0,2.0,89,0.00,,,0.13,Wunderground v.1.15,2013-04-28 23:47:00,
2013-04-28 19:53:00,51.8,48.7,30.14,ESE,122,1.0,2.0,89,0.00,,,0.13,Wunderground v.1.15,2013-04-28 23:53:00,
2013-04-28 19:58:00,51.8,48.7,30.14,ESE,122,1.0,2.0,89,0.00,,,0.13,Wunderground v.1.15,2013-04-28 23:58:00,
2013-04-28 20:04:00,51.8,48.4,30.15,ESE,122,0.0,1.0,88,0.00,,,0.13,Wunderground v.1.15,2013-04-29 00:04:00,
2013-04-28 20:09:00,51.7,48.3,30.14,ESE,122,0.0,2.0,88,0.00,,,0.13,Wunderground v.1.15,2013-04-29 00:09:00,
2013-04-28 20:14:00,51.8,48.4,30.14,ESE,122,1.0,3.0,88,0.00,,,0.13,Wunderground v.1.15,2013-04-29 00:14:00,
2013-04-28 20:20:00,51.9,48.2,30.15,ESE,122,1.0,1.0,87,0.00,,,0.13,Wunderground v.1.15,2013-04-29 00:20:00,
2013-04-28 20:25:00,52.1,48.3,30.15,ESE,122,1.0,2.0,87,0.00,,,0.13,Wunderground v.1.15,2013-04-29 00:25:00,
2013-04-28 20:31:00,52.2,48.4,30.15,ESE,122,0.0,0.0,87,0.00,,,0.13,Wunderground v.1.15,2013-04-29 00:31:00,
2013-04-28 20:36:00,52.2,48.4,30.15,ESE,122,0.0,0.0,87,0.00,,,0.13,Wunderground v.1.15,2013-04-29 00:36:00,
2013-04-28 20:41:00,52.2,48.4,30.15,ESE,122,0.0,0.0,87,0.00,,,0.13,Wunderground v.1.15,2013-04-29 00:41:00,
2013-04-28 20:47:00,52.2,48.4,30.15,ESE,122,0.0,1.0,87,0.00,,,0.13,Wunderground v.1.15,2013-04-29 00:47:00,
2013-04-28 20:52:00,52.2,48.4,30.15,ESE,122,0.0,2.0,87,0.00,,,0.13,Wunderground v.1.15,2013-04-29 00:52:00,
2013-04-28 20:57:00,52.2,48.4,30.15,ESE,122,1.0,2.0,87,0.00,,,0.13,Wunderground v.1.15,2013-04-29 00:57:00,
2013-04-28 21:03:00,52.3,48.5,30.15,ESE,122,1.0,2.0,87,0.00,,,0.13,Wunderground v.1.15,2013-04-29 01:03:00,
2013-04-28 21:08:00,52.3,48.5,30.15,ESE,122,0.0,2.0,87,0.00,,,0.13,Wunderground v.1.15,2013-04-29 01:08:00,
2013-04-28 21:14:00,52.3,48.5,30.15,ESE,122,0.0,0.0,87,0.00,,,0.13,Wunderground v.1.15,2013-04-29 01:14:00,